Time;durP1;ratioP1;P1;durP2;ratioP2;P2;SDS_P1;SDS_P2;PMS_P1;PMS_P2;Temp;Humidity;BMP_temperature;BMP_pressure;BME280_temperature;BME280_humidity;BME280_pressure;Samples;Min_cycle;Max_cycle;Signal;HPM_P1;HPM_P2
2023/09/15 00:00:42;;;;;;;;;;;11.60;99.90;;;;;;7321071;19;9175;-76
2023/09/15 00:03:12;;;;;;;;;;;11.60;99.90;;;;;;7322737;19;9273;-76
2023/09/15 00:05:41;;;;;;;;;;;11.60;99.90;;;;;;7321119;19;9418;-76
2023/09/15 00:08:10;;;;;;;;;;;11.70;99.90;;;;;;7320534;19;9418;-76
2023/09/15 00:10:44;;;;;;;;;;;11.60;99.90;;;;;;7318861;19;9245;-76
2023/09/15 00:13:14;;;;;;;;;;;11.60;99.90;;;;;;7319173;19;9254;-76
2023/09/15 00:15:44;;;;;;;;;;;11.50;99.90;;;;;;7318929;19;9660;-76
2023/09/15 00:18:13;;;;;;;;;;;11.50;99.90;;;;;;7322086;19;9361;-76
2023/09/15 00:20:42;;;;;;;;;;;11.50;99.90;;;;;;7323665;19;9261;-76
2023/09/15 00:23:11;;;;;;;;;;;11.50;99.90;;;;;;7321473;19;9400;-76
2023/09/15 00:25:45;;;;;;;;;;;11.50;99.90;;;;;;7323421;19;9049;-76
2023/09/15 00:28:14;;;;;;;;;;;11.50;99.90;;;;;;7323478;19;9534;-76
2023/09/15 00:30:43;;;;;;;;;;;11.50;99.90;;;;;;7323144;19;8945;-76
2023/09/15 00:33:12;;;;;;;;;;;11.40;99.90;;;;;;7319303;19;12487;-76
2023/09/15 00:35:41;;;;;;;;;;;11.40;99.90;;;;;;7322957;19;9266;-76
2023/09/15 00:38:10;;;;;;;;;;;11.40;99.90;;;;;;7323193;19;9557;-76
2023/09/15 00:40:39;;;;;;;;;;;11.30;99.90;;;;;;7320488;19;9306;-76
2023/09/15 00:43:11;;;;;;;;;;;11.20;99.90;;;;;;7320007;19;9254;-76
2023/09/15 00:45:40;;;;;;;;;;;11.10;99.90;;;;;;7322680;19;9303;-76
2023/09/15 00:48:11;;;;;;;;;;;11.10;99.90;;;;;;7321704;19;10820;-76
2023/09/15 00:50:40;;;;;;;;;;;11.10;99.90;;;;;;7321938;19;9457;-76
2023/09/15 00:53:15;;;;;;;;;;;11.10;99.90;;;;;;7324605;19;9962;-76
2023/09/15 00:55:46;;;;;;;;;;;11.20;99.90;;;;;;7326348;19;9263;-76
2023/09/15 00:58:19;;;;;;;;;;;11.20;99.90;;;;;;7323038;19;8944;-76
2023/09/15 01:01:09;;;;;;;;;;;11.20;99.90;;;;;;7321184;19;9376;-76
2023/09/15 01:03:42;;;;;;;;;;;11.10;99.90;;;;;;7319575;19;9475;-76
2023/09/15 01:06:32;;;;;;;;;;;11.10;99.90;;;;;;7319102;19;9209;-76
2023/09/15 01:09:02;;;;;;;;;;;11.00;99.90;;;;;;7315019;19;9272;-76
2023/09/15 01:11:31;;;;;;;;;;;11.00;99.90;;;;;;7317885;19;9293;-76
2023/09/15 01:14:03;;;;;;;;;;;10.90;99.90;;;;;;7321181;19;9345;-77
2023/09/15 01:16:41;;;;;;;;;;;10.90;99.90;;;;;;7321161;19;9238;-77
2023/09/15 01:19:38;;;;;;;;;;;10.90;99.90;;;;;;7320769;19;9521;-76
2023/09/15 01:22:30;;;;;;;;;;;10.90;99.90;;;;;;7322537;19;9753;-76
2023/09/15 01:25:56;;;;;;;;;;;10.90;99.90;;;;;;7317912;19;9326;-77
2023/09/15 01:29:07;;;;;;;;;;;10.90;99.90;;;;;;7318797;19;9225;-75
2023/09/15 01:31:41;;;;;;;;;;;10.80;99.90;;;;;;7321024;19;9329;-76
2023/09/15 01:34:13;;;;;;;;;;;10.80;99.90;;;;;;7321099;19;10434;-76
2023/09/15 01:36:43;;;;;;;;;;;10.70;99.90;;;;;;7319646;19;9162;-76
2023/09/15 01:39:12;;;;;;;;;;;10.80;99.90;;;;;;7319842;19;9569;-76
2023/09/15 01:41:41;;;;;;;;;;;10.80;99.90;;;;;;7315076;19;9542;-76
2023/09/15 01:44:10;;;;;;;;;;;10.70;99.90;;;;;;7318206;19;9614;-76
2023/09/15 01:46:42;;;;;;;;;;;10.70;99.90;;;;;;7320586;19;9273;-80
2023/09/15 01:49:13;;;;;;;;;;;10.50;99.90;;;;;;7319963;19;9270;-79
2023/09/15 01:51:42;;;;;;;;;;;10.60;99.90;;;;;;7317604;19;9262;-80
2023/09/15 01:54:12;;;;;;;;;;;10.70;99.90;;;;;;7317446;19;9140;-80
2023/09/15 01:56:41;;;;;;;;;;;10.50;99.90;;;;;;7321555;19;9194;-79
2023/09/15 01:59:10;;;;;;;;;;;10.50;99.90;;;;;;7320527;19;9219;-80
2023/09/15 02:01:42;;;;;;;;;;;10.40;99.90;;;;;;7323489;19;9285;-79
2023/09/15 02:04:32;;;;;;;;;;;10.40;99.90;;;;;;7315917;19;9748;-80
2023/09/15 02:07:01;;;;;;;;;;;10.50;99.90;;;;;;7318299;19;9524;-79
2023/09/15 02:09:30;;;;;;;;;;;10.60;99.90;;;;;;7317729;19;8948;-79
2023/09/15 02:11:59;;;;;;;;;;;10.40;99.90;;;;;;7320552;19;10204;-79
2023/09/15 02:14:28;;;;;;;;;;;10.30;99.90;;;;;;7318881;19;9222;-79
2023/09/15 02:17:00;;;;;;;;;;;10.40;99.90;;;;;;7296922;19;9667;-79
2023/09/15 02:19:29;;;;;;;;;;;10.40;99.90;;;;;;7293603;19;9654;-79
2023/09/15 02:21:58;;;;;;;;;;;10.30;99.90;;;;;;7308499;19;11155;-79
2023/09/15 02:24:26;;;;;;;;;;;10.20;99.90;;;;;;7318490;19;9213;-79
2023/09/15 02:26:55;;;;;;;;;;;10.00;99.90;;;;;;7317677;19;8948;-80
2023/09/15 02:29:25;;;;;;;;;;;10.00;99.90;;;;;;7316368;19;9246;-80
2023/09/15 02:31:55;;;;;;;;;;;9.90;99.90;;;;;;7315851;19;9237;-79
2023/09/15 02:34:26;;;;;;;;;;;9.90;99.90;;;;;;7320502;19;9872;-79
2023/09/15 02:36:55;;;;;;;;;;;10.00;99.90;;;;;;7320476;19;9596;-79
2023/09/15 02:39:24;;;;;;;;;;;10.20;99.90;;;;;;7313997;19;8948;-79
2023/09/15 02:42:13;;;;;;;;;;;10.20;99.90;;;;;;7315658;19;9508;-79
2023/09/15 02:44:44;;;;;;;;;;;10.10;99.90;;;;;;7319357;19;9257;-80
2023/09/15 02:47:14;;;;;;;;;;;10.10;99.90;;;;;;7317108;19;9537;-80
2023/09/15 02:49:46;;;;;;;;;;;10.20;99.90;;;;;;7315612;19;10086;-80
2023/09/15 02:52:14;;;;;;;;;;;10.20;99.90;;;;;;7318590;19;8944;-79
2023/09/15 02:54:43;;;;;;;;;;;10.30;99.90;;;;;;7318196;19;9287;-80
2023/09/15 02:57:12;;;;;;;;;;;10.20;99.90;;;;;;7318202;19;9208;-79
2023/09/15 02:59:41;;;;;;;;;;;10.30;99.90;;;;;;7314822;19;9432;-80
2023/09/15 03:02:12;;;;;;;;;;;10.40;99.90;;;;;;7318482;19;9294;-80
2023/09/15 03:04:46;;;;;;;;;;;10.30;99.90;;;;;;7315349;19;9634;-80
2023/09/15 03:07:39;;;;;;;;;;;10.30;99.90;;;;;;7310799;19;10503;-80
2023/09/15 03:10:09;;;;;;;;;;;10.20;99.90;;;;;;7312400;19;10350;-79
2023/09/15 03:12:39;;;;;;;;;;;10.30;99.90;;;;;;7293174;19;9686;-79
2023/09/15 03:15:11;;;;;;;;;;;10.20;99.90;;;;;;7294308;19;9440;-79
2023/09/15 03:17:40;;;;;;;;;;;10.20;99.90;;;;;;7294688;19;9250;-79
2023/09/15 03:20:15;;;;;;;;;;;10.20;99.90;;;;;;7294949;19;9315;-79
2023/09/15 03:22:45;;;;;;;;;;;10.20;99.90;;;;;;7292799;19;9272;-79
2023/09/15 03:25:15;;;;;;;;;;;10.20;99.90;;;;;;7295063;19;9448;-80
2023/09/15 03:28:04;;;;;;;;;;;10.10;99.90;;;;;;7316571;19;9415;-80
2023/09/15 03:30:33;;;;;;;;;;;10.00;99.90;;;;;;7305544;19;9279;-79
2023/09/15 03:33:23;;;;;;;;;;;10.00;99.90;;;;;;7316042;19;9602;-79
2023/09/15 03:35:54;;;;;;;;;;;9.80;99.90;;;;;;7323593;19;9258;-80
2023/09/15 03:38:23;;;;;;;;;;;9.80;99.90;;;;;;7324648;19;9245;-79
2023/09/15 03:40:52;;;;;;;;;;;9.80;99.90;;;;;;7317965;19;9266;-79
2023/09/15 03:43:41;;;;;;;;;;;9.80;99.90;;;;;;7322258;19;9247;-80
2023/09/15 03:46:10;;;;;;;;;;;9.70;99.90;;;;;;7322721;19;9186;-79
2023/09/15 03:48:39;;;;;;;;;;;9.70;99.90;;;;;;7320419;19;9421;-79
2023/09/15 03:51:11;;;;;;;;;;;9.70;99.90;;;;;;7320347;19;10817;-79
2023/09/15 03:53:40;;;;;;;;;;;9.70;99.90;;;;;;7319571;19;9734;-79
2023/09/15 03:56:09;;;;;;;;;;;9.70;99.90;;;;;;7323525;19;9475;-79
2023/09/15 03:58:38;;;;;;;;;;;9.80;99.90;;;;;;7323833;19;9202;-80
2023/09/15 04:01:09;;;;;;;;;;;9.70;99.90;;;;;;7321743;19;9269;-79
2023/09/15 04:03:38;;;;;;;;;;;9.70;99.90;;;;;;7325395;19;9134;-80
2023/09/15 04:06:10;;;;;;;;;;;9.70;99.90;;;;;;7323725;19;9217;-80
2023/09/15 04:08:39;;;;;;;;;;;9.70;99.90;;;;;;7327630;19;9174;-79
2023/09/15 04:11:08;;;;;;;;;;;9.80;99.90;;;;;;7308838;19;9547;-79
2023/09/15 04:13:37;;;;;;;;;;;9.80;99.90;;;;;;7313261;19;10489;-80
2023/09/15 04:16:06;;;;;;;;;;;9.70;99.90;;;;;;7311742;19;8944;-80
2023/09/15 04:18:35;;;;;;;;;;;9.70;99.90;;;;;;7308839;19;9384;-79
2023/09/15 04:21:04;;;;;;;;;;;9.70;99.90;;;;;;7316985;19;9233;-79
2023/09/15 04:23:36;;;;;;;;;;;9.70;99.90;;;;;;7313732;19;9299;-79
2023/09/15 04:26:05;;;;;;;;;;;9.70;99.90;;;;;;7317679;19;9251;-79
2023/09/15 04:28:34;;;;;;;;;;;9.70;99.90;;;;;;7312332;19;9433;-80
2023/09/15 04:31:03;;;;;;;;;;;9.80;99.90;;;;;;7314086;19;9110;-80
2023/09/15 04:33:32;;;;;;;;;;;9.70;99.90;;;;;;7320846;19;9217;-79
2023/09/15 04:36:01;;;;;;;;;;;9.60;99.90;;;;;;7322045;19;10162;-80
2023/09/15 04:38:32;;;;;;;;;;;9.70;99.90;;;;;;7323068;19;9163;-79
2023/09/15 04:41:04;;;;;;;;;;;9.60;99.90;;;;;;7318370;19;9376;-79
2023/09/15 04:43:55;;;;;;;;;;;9.60;99.90;;;;;;7320504;19;10522;-80
2023/09/15 04:46:24;;;;;;;;;;;9.50;99.90;;;;;;7322707;19;9285;-79
2023/09/15 04:48:53;;;;;;;;;;;9.40;99.90;;;;;;7323328;19;9480;-80
2023/09/15 04:51:22;;;;;;;;;;;9.50;99.90;;;;;;7319370;19;9199;-79
2023/09/15 04:53:51;;;;;;;;;;;9.60;99.90;;;;;;7319025;19;9286;-80
2023/09/15 04:56:23;;;;;;;;;;;9.50;99.90;;;;;;7323021;19;9463;-80
2023/09/15 04:58:52;;;;;;;;;;;9.40;99.90;;;;;;7321580;19;9349;-80
2023/09/15 05:01:21;;;;;;;;;;;9.40;99.90;;;;;;7318842;19;9433;-80
2023/09/15 05:03:50;;;;;;;;;;;9.50;99.90;;;;;;7321910;19;9475;-79
2023/09/15 05:06:40;;;;;;;;;;;9.50;99.90;;;;;;7312281;19;9470;-80
2023/09/15 05:09:10;;;;;;;;;;;9.40;99.90;;;;;;7318085;19;9484;-80
2023/09/15 05:11:41;;;;;;;;;;;9.40;99.90;;;;;;7314463;19;10657;-80
2023/09/15 05:14:10;;;;;;;;;;;9.40;99.90;;;;;;7322529;19;9651;-80
2023/09/15 05:16:39;;;;;;;;;;;9.40;99.90;;;;;;7322071;19;9229;-80
2023/09/15 05:19:08;;;;;;;;;;;9.30;99.90;;;;;;7321870;19;9277;-79
2023/09/15 05:21:57;;;;;;;;;;;9.40;99.90;;;;;;7315216;19;9265;-80
2023/09/15 05:24:26;;;;;;;;;;;9.50;99.90;;;;;;7321684;19;9260;-79
2023/09/15 05:26:58;;;;;;;;;;;9.40;99.90;;;;;;7318780;19;9318;-80
2023/09/15 05:29:27;;;;;;;;;;;9.30;99.90;;;;;;7321012;19;9412;-79
2023/09/15 05:31:56;;;;;;;;;;;9.40;99.90;;;;;;7310931;19;9266;-75
2023/09/15 05:34:45;;;;;;;;;;;9.40;99.90;;;;;;7311640;19;9187;-75
2023/09/15 05:37:15;;;;;;;;;;;9.40;99.90;;;;;;7314739;19;9481;-75
2023/09/15 05:39:44;;;;;;;;;;;9.40;99.90;;;;;;7311703;19;9574;-73
2023/09/15 05:42:16;;;;;;;;;;;9.40;99.90;;;;;;7315794;19;9273;-74
2023/09/15 05:44:45;;;;;;;;;;;9.50;99.90;;;;;;7312106;19;9172;-74
2023/09/15 05:47:14;;;;;;;;;;;9.50;99.90;;;;;;7319759;19;9306;-74
2023/09/15 05:50:04;;;;;;;;;;;9.60;99.90;;;;;;7315676;19;9261;-74
2023/09/15 05:52:33;;;;;;;;;;;9.50;99.90;;;;;;7316266;19;9361;-74
2023/09/15 05:55:04;;;;;;;;;;;9.60;99.90;;;;;;7315751;19;9473;-77
2023/09/15 05:57:55;;;;;;;;;;;9.60;99.90;;;;;;7317948;19;9574;-77
2023/09/15 06:00:24;;;;;;;;;;;9.60;99.90;;;;;;7316982;19;9058;-76
2023/09/15 06:02:53;;;;;;;;;;;9.70;99.90;;;;;;7319434;19;9506;-74
2023/09/15 06:05:42;;;;;;;;;;;9.70;99.90;;;;;;7306046;19;10180;-74
2023/09/15 06:08:32;;;;;;;;;;;9.70;99.90;;;;;;7302840;19;9564;-75
2023/09/15 06:11:03;;;;;;;;;;;9.80;99.90;;;;;;7308689;19;9748;-74
2023/09/15 06:13:34;;;;;;;;;;;9.90;99.90;;;;;;7314180;19;9222;-74
2023/09/15 06:16:04;;;;;;;;;;;9.90;99.90;;;;;;7318256;19;9314;-74
2023/09/15 06:18:32;;;;;;;;;;;10.00;99.90;;;;;;7319284;19;9385;-75
2023/09/15 06:21:02;;;;;;;;;;;10.10;99.90;;;;;;7315760;19;9258;-78
2023/09/15 06:23:31;;;;;;;;;;;10.10;99.90;;;;;;7300274;19;10686;-77
2023/09/15 06:26:00;;;;;;;;;;;10.20;99.90;;;;;;7318784;19;9391;-78
2023/09/15 06:28:29;;;;;;;;;;;10.30;99.90;;;;;;7319801;19;9073;-78
2023/09/15 06:31:02;;;;;;;;;;;10.40;99.90;;;;;;7316179;19;9608;-78
2023/09/15 06:33:51;;;;;;;;;;;10.40;99.90;;;;;;7315123;19;9271;-78
2023/09/15 06:36:21;;;;;;;;;;;10.50;99.90;;;;;;7311349;19;9302;-78
2023/09/15 06:38:50;;;;;;;;;;;10.50;99.90;;;;;;7315663;19;9267;-78
2023/09/15 06:41:19;;;;;;;;;;;10.50;99.90;;;;;;7304838;19;9647;-78
2023/09/15 06:43:48;;;;;;;;;;;10.60;99.90;;;;;;7307049;19;9947;-78
2023/09/15 06:46:21;;;;;;;;;;;10.70;99.90;;;;;;7308452;19;9253;-78
2023/09/15 06:48:51;;;;;;;;;;;10.80;99.90;;;;;;7318109;19;9249;-78
2023/09/15 06:51:19;;;;;;;;;;;10.90;99.90;;;;;;7313981;19;9098;-78
2023/09/15 06:53:48;;;;;;;;;;;11.00;99.90;;;;;;7315774;19;9052;-78
2023/09/15 06:56:17;;;;;;;;;;;11.00;99.90;;;;;;7319202;19;9202;-77
2023/09/15 06:58:47;;;;;;;;;;;11.10;99.90;;;;;;7314855;19;9313;-77
2023/09/15 07:01:16;;;;;;;;;;;11.20;99.90;;;;;;7311983;19;9438;-77
2023/09/15 07:03:48;;;;;;;;;;;11.20;99.90;;;;;;7309615;19;9507;-78
2023/09/15 07:06:18;;;;;;;;;;;11.40;99.90;;;;;;7308334;19;9307;-77
2023/09/15 07:08:49;;;;;;;;;;;11.50;99.90;;;;;;7315484;19;9301;-78
2023/09/15 07:11:18;;;;;;;;;;;11.60;99.90;;;;;;7320757;19;9378;-77
2023/09/15 07:13:47;;;;;;;;;;;11.80;99.90;;;;;;7324056;19;9631;-77
2023/09/15 07:16:16;;;;;;;;;;;12.10;99.90;;;;;;7323560;19;9236;-77
2023/09/15 07:18:47;;;;;;;;;;;12.40;99.90;;;;;;7320980;19;9242;-78
2023/09/15 07:21:16;;;;;;;;;;;12.90;99.90;;;;;;7313861;19;9325;-77
2023/09/15 07:23:45;;;;;;;;;;;13.30;99.90;;;;;;7316285;19;10372;-78
2023/09/15 07:26:14;;;;;;;;;;;13.60;99.90;;;;;;7323130;19;9439;-77
2023/09/15 07:28:43;;;;;;;;;;;13.70;99.90;;;;;;7318166;19;11407;-78
2023/09/15 07:31:15;;;;;;;;;;;13.80;99.90;;;;;;7325589;19;9256;-77
2023/09/15 07:33:44;;;;;;;;;;;13.90;99.90;;;;;;7321613;19;9483;-77
2023/09/15 07:36:36;;;;;;;;;;;14.10;99.90;;;;;;7316708;19;12122;-77
2023/09/15 07:39:05;;;;;;;;;;;14.10;99.90;;;;;;7316106;19;9751;-79
2023/09/15 07:41:34;;;;;;;;;;;14.10;99.90;;;;;;7317950;19;10206;-79
2023/09/15 07:44:03;;;;;;;;;;;14.20;99.90;;;;;;7319715;19;9515;-79
2023/09/15 07:46:33;;;;;;;;;;;14.40;99.90;;;;;;7318809;19;9481;-79
2023/09/15 07:49:02;;;;;;;;;;;14.50;99.90;;;;;;7321509;19;9055;-79
2023/09/15 07:51:31;;;;;;;;;;;14.70;99.90;;;;;;7316538;19;11025;-79
2023/09/15 07:54:03;;;;;;;;;;;14.70;99.90;;;;;;7320220;19;8980;-78
2023/09/15 07:56:33;;;;;;;;;;;14.80;99.90;;;;;;7320147;19;9277;-79
2023/09/15 07:59:03;;;;;;;;;;;14.80;99.90;;;;;;7312845;19;9309;-79
2023/09/15 08:01:32;;;;;;;;;;;14.90;99.90;;;;;;7320982;19;8944;-79
2023/09/15 08:04:21;;;;;;;;;;;14.90;99.90;;;;;;7320085;19;9392;-78
2023/09/15 08:06:51;;;;;;;;;;;14.80;99.90;;;;;;7317992;19;9105;-78
2023/09/15 08:09:24;;;;;;;;;;;14.80;99.90;;;;;;7322441;19;9097;-78
2023/09/15 08:11:54;;;;;;;;;;;14.70;99.90;;;;;;7322318;19;9451;-78
2023/09/15 08:14:23;;;;;;;;;;;14.70;99.90;;;;;;7323698;19;9225;-77
2023/09/15 08:16:52;;;;;;;;;;;14.70;99.90;;;;;;7317939;19;9289;-76
2023/09/15 08:19:21;;;;;;;;;;;14.80;99.90;;;;;;7315329;19;9119;-77
2023/09/15 08:21:51;;;;;;;;;;;14.90;99.90;;;;;;7320535;19;9246;-77
2023/09/15 08:24:22;;;;;;;;;;;14.90;99.90;;;;;;7313795;19;9507;-76
2023/09/15 08:26:51;;;;;;;;;;;15.00;99.90;;;;;;7324735;19;9309;-78
2023/09/15 08:29:20;;;;;;;;;;;15.10;99.90;;;;;;7324250;19;9570;-78
2023/09/15 08:32:10;;;;;;;;;;;15.20;99.90;;;;;;7311214;19;9624;-78
2023/09/15 08:34:41;;;;;;;;;;;15.40;99.90;;;;;;7318692;19;9466;-78
2023/09/15 08:37:12;;;;;;;;;;;15.40;99.90;;;;;;7319063;19;9004;-79
2023/09/15 08:40:05;;;;;;;;;;;15.50;99.90;;;;;;7316084;19;9253;-79
2023/09/15 08:42:34;;;;;;;;;;;15.60;99.90;;;;;;7321059;19;9170;-79
2023/09/15 08:45:07;;;;;;;;;;;15.80;99.90;;;;;;7314417;19;11679;-78
2023/09/15 08:47:39;;;;;;;;;;;15.80;99.90;;;;;;7319227;19;9234;-79
2023/09/15 08:50:10;;;;;;;;;;;15.90;99.90;;;;;;7306055;19;9576;-79
2023/09/15 08:53:03;;;;;;;;;;;16.00;99.90;;;;;;7314625;19;9496;-78
2023/09/15 08:55:35;;;;;;;;;;;16.20;99.90;;;;;;7321226;19;9356;-78
2023/09/15 08:58:06;;;;;;;;;;;16.30;99.90;;;;;;7315275;19;9442;-79
2023/09/15 09:00:57;;;;;;;;;;;16.50;99.90;;;;;;7318323;19;10259;-78
2023/09/15 09:03:26;;;;;;;;;;;16.60;99.90;;;;;;7321795;19;9367;-78
2023/09/15 09:05:56;;;;;;;;;;;16.70;99.90;;;;;;7316984;19;9158;-78
2023/09/15 09:08:26;;;;;;;;;;;16.80;99.90;;;;;;7318813;19;9478;-79
2023/09/15 09:10:59;;;;;;;;;;;17.00;99.90;;;;;;7314381;19;9237;-79
2023/09/15 09:13:54;;;;;;;;;;;17.10;99.90;;;;;;7316436;19;9263;-78
2023/09/15 09:16:23;;;;;;;;;;;17.20;99.90;;;;;;7316050;19;9262;-79
2023/09/15 09:19:00;;;;;;;;;;;17.30;99.90;;;;;;7310979;19;10318;-78
2023/09/15 09:21:32;;;;;;;;;;;17.40;99.90;;;;;;7317093;19;9269;-79
2023/09/15 09:24:01;;;;;;;;;;;17.40;99.90;;;;;;7322220;19;9560;-79
2023/09/15 09:26:33;;;;;;;;;;;17.50;99.90;;;;;;7322150;19;9495;-78
2023/09/15 09:29:27;;;;;;;;;;;17.50;99.90;;;;;;7306975;19;9298;-78
2023/09/15 09:31:56;;;;;;;;;;;17.70;99.90;;;;;;7296937;19;9171;-77
2023/09/15 09:34:26;;;;;;;;;;;17.90;99.90;;;;;;7308974;19;9233;-77
2023/09/15 09:36:56;;;;;;;;;;;18.00;99.90;;;;;;7316176;19;9195;-76
2023/09/15 09:39:26;;;;;;;;;;;18.10;99.90;;;;;;7319411;19;9338;-79
2023/09/15 09:41:58;;;;;;;;;;;18.20;99.90;;;;;;7316045;19;9461;-78
2023/09/15 09:44:27;;;;;;;;;;;18.30;99.90;;;;;;7320304;19;9016;-79
2023/09/15 09:46:56;;;;;;;;;;;18.30;99.90;;;;;;7317152;19;9264;-79
2023/09/15 09:49:26;;;;;;;;;;;18.30;99.90;;;;;;7310714;19;9428;-79
2023/09/15 09:51:56;;;;;;;;;;;18.50;99.90;;;;;;7316193;19;9319;-80
2023/09/15 09:54:27;;;;;;;;;;;18.50;99.90;;;;;;7319636;19;9533;-89
2023/09/15 09:56:59;;;;;;;;;;;18.60;99.90;;;;;;7310468;19;9444;-79
2023/09/15 09:59:48;;;;;;;;;;;18.50;99.90;;;;;;7315350;19;9279;-80
2023/09/15 10:02:39;;;;;;;;;;;18.50;99.90;;;;;;7309491;19;9266;-79
2023/09/15 10:05:08;;;;;;;;;;;18.60;99.90;;;;;;7305345;19;9274;-79
2023/09/15 10:07:38;;;;;;;;;;;18.70;99.90;;;;;;7319881;19;9276;-78
2023/09/15 10:10:10;;;;;;;;;;;18.90;99.90;;;;;;7316864;19;9269;-80
2023/09/15 10:12:43;;;;;;;;;;;18.90;99.90;;;;;;7315073;19;9270;-78
2023/09/15 10:15:13;;;;;;;;;;;19.00;99.90;;;;;;7316425;19;9211;-79
2023/09/15 10:17:43;;;;;;;;;;;19.10;99.90;;;;;;7311047;19;9352;-80
2023/09/15 10:20:12;;;;;;;;;;;19.10;98.30;;;;;;7311674;19;9222;-79
2023/09/15 10:22:42;;;;;;;;;;;19.20;97.10;;;;;;7317437;19;9442;-79
2023/09/15 10:25:21;;;;;;;;;;;19.30;98.50;;;;;;7320102;19;9483;-80
2023/09/15 10:27:53;;;;;;;;;;;19.40;97.20;;;;;;7318382;19;9456;-79
2023/09/15 10:30:22;;;;;;;;;;;19.50;97.40;;;;;;7319456;19;9264;-79
2023/09/15 10:32:53;;;;;;;;;;;19.50;97.90;;;;;;7322838;19;9204;-76
2023/09/15 10:35:22;;;;;;;;;;;19.60;97.60;;;;;;7321364;19;10385;-80
2023/09/15 10:37:51;;;;;;;;;;;19.80;95.90;;;;;;7313879;19;9254;-78
2023/09/15 10:40:20;;;;;;;;;;;19.60;95.70;;;;;;7313429;19;9168;-79
2023/09/15 10:42:55;;;;;;;;;;;19.60;95.40;;;;;;7312427;19;9479;-79
2023/09/15 10:45:24;;;;;;;;;;;19.60;96.40;;;;;;7317478;19;11174;-79
2023/09/15 10:48:00;;;;;;;;;;;19.60;96.20;;;;;;7313815;19;9126;-78
2023/09/15 10:50:33;;;;;;;;;;;19.80;95.50;;;;;;7316507;19;9281;-80
2023/09/15 10:53:14;;;;;;;;;;;19.90;96.30;;;;;;7317317;19;9340;-80
2023/09/15 10:55:43;;;;;;;;;;;20.00;95.80;;;;;;7319234;19;9302;-77
2023/09/15 10:58:18;;;;;;;;;;;20.00;93.80;;;;;;7319840;19;11923;-78
2023/09/15 11:00:49;;;;;;;;;;;20.10;94.00;;;;;;7315284;19;9556;-78
2023/09/15 11:03:18;;;;;;;;;;;20.00;93.50;;;;;;7313987;19;9248;-77
2023/09/15 11:05:48;;;;;;;;;;;19.90;94.70;;;;;;7313666;19;9505;-77
2023/09/15 11:08:17;;;;;;;;;;;20.10;95.20;;;;;;7314351;19;9458;-80
2023/09/15 11:10:46;;;;;;;;;;;20.20;94.70;;;;;;7316530;19;9250;-75
2023/09/15 11:13:18;;;;;;;;;;;20.20;95.60;;;;;;7316904;19;9506;-79
2023/09/15 11:15:49;;;;;;;;;;;20.10;94.10;;;;;;7311935;19;9225;-77
2023/09/15 11:18:18;;;;;;;;;;;20.00;93.70;;;;;;7299228;19;9737;-81
2023/09/15 11:20:47;;;;;;;;;;;19.90;94.50;;;;;;7299565;19;9277;-78
2023/09/15 11:23:19;;;;;;;;;;;20.00;93.60;;;;;;7302348;19;9382;-77
2023/09/15 11:25:48;;;;;;;;;;;20.00;94.80;;;;;;7317157;19;10127;-77
2023/09/15 11:28:19;;;;;;;;;;;20.00;93.60;;;;;;7318830;19;9202;-74
2023/09/15 11:30:49;;;;;;;;;;;20.10;94.20;;;;;;7319749;19;10561;-72
2023/09/15 11:33:19;;;;;;;;;;;20.10;93.80;;;;;;7312276;19;9230;-72
2023/09/15 11:35:50;;;;;;;;;;;20.20;94.70;;;;;;7312788;19;9646;-72
2023/09/15 11:38:20;;;;;;;;;;;20.30;93.90;;;;;;7316401;19;9139;-74
2023/09/15 11:40:50;;;;;;;;;;;20.20;93.40;;;;;;7311259;19;9202;-73
2023/09/15 11:43:24;;;;;;;;;;;20.20;92.70;;;;;;7310052;19;9805;-72
2023/09/15 11:45:54;;;;;;;;;;;20.10;93.30;;;;;;7317709;19;9856;-73
2023/09/15 11:48:25;;;;;;;;;;;20.00;95.40;;;;;;7316911;19;9253;-72
2023/09/15 11:50:57;;;;;;;;;;;20.10;95.70;;;;;;7313962;19;9434;-78
2023/09/15 11:53:28;;;;;;;;;;;20.30;95.80;;;;;;7314604;19;9251;-77
2023/09/15 11:55:57;;;;;;;;;;;20.50;95.60;;;;;;7319051;19;9265;-77
2023/09/15 11:58:29;;;;;;;;;;;20.80;94.70;;;;;;7316408;19;9369;-76
2023/09/15 12:00:58;;;;;;;;;;;20.50;94.50;;;;;;7318917;19;9287;-75
2023/09/15 12:03:27;;;;;;;;;;;20.50;93.80;;;;;;7318231;19;9282;-75
2023/09/15 12:05:57;;;;;;;;;;;20.60;94.60;;;;;;7314335;19;9281;-75
2023/09/15 12:08:26;;;;;;;;;;;20.70;93.90;;;;;;7313959;19;9278;-74
2023/09/15 12:10:55;;;;;;;;;;;20.60;94.80;;;;;;7321253;19;9244;-74
2023/09/15 12:13:28;;;;;;;;;;;20.80;94.70;;;;;;7322632;19;9598;-76
2023/09/15 12:15:57;;;;;;;;;;;20.90;94.00;;;;;;7321416;19;9238;-76
2023/09/15 12:18:29;;;;;;;;;;;20.90;94.10;;;;;;7323485;19;9254;-75
2023/09/15 12:20:57;;;;;;;;;;;20.90;95.20;;;;;;7326788;19;9394;-79
2023/09/15 12:23:30;;;;;;;;;;;20.80;92.30;;;;;;7322761;19;9258;-76
2023/09/15 12:25:59;;;;;;;;;;;20.80;92.10;;;;;;7321464;19;9549;-72
2023/09/15 12:28:53;;;;;;;;;;;20.90;94.80;;;;;;7319240;19;9281;-74
2023/09/15 12:31:23;;;;;;;;;;;20.90;94.70;;;;;;7321649;19;9179;-73
2023/09/15 12:33:55;;;;;;;;;;;20.80;93.40;;;;;;7318614;19;9360;-73
2023/09/15 12:36:25;;;;;;;;;;;21.00;92.70;;;;;;7318880;19;9262;-74
2023/09/15 12:38:54;;;;;;;;;;;20.80;92.90;;;;;;7322216;19;9206;-75
2023/09/15 12:41:25;;;;;;;;;;;20.70;93.40;;;;;;7322840;19;10343;-75
2023/09/15 12:44:21;;;;;;;;;;;20.70;94.00;;;;;;7317229;19;10191;-76
2023/09/15 12:46:53;;;;;;;;;;;20.90;94.40;;;;;;7311858;19;9258;-77
2023/09/15 12:49:21;;;;;;;;;;;21.10;95.40;;;;;;7314155;19;9249;-78
2023/09/15 12:51:50;;;;;;;;;;;21.20;93.30;;;;;;7321617;19;9159;-81
2023/09/15 12:54:21;;;;;;;;;;;21.00;94.00;;;;;;7324162;19;9172;-78
2023/09/15 12:56:53;;;;;;;;;;;20.90;93.30;;;;;;7324157;19;9477;-77
2023/09/15 12:59:26;;;;;;;;;;;21.00;93.50;;;;;;7322664;19;9464;-78
2023/09/15 13:01:56;;;;;;;;;;;21.10;94.80;;;;;;7322439;19;9266;-77
2023/09/15 13:04:26;;;;;;;;;;;21.00;95.40;;;;;;7324667;19;9218;-78
2023/09/15 13:06:56;;;;;;;;;;;20.80;95.10;;;;;;7324000;19;9505;-79
2023/09/15 13:09:27;;;;;;;;;;;20.60;95.40;;;;;;7322346;19;10394;-77
2023/09/15 13:11:57;;;;;;;;;;;20.50;95.50;;;;;;7322970;19;9023;-77
2023/09/15 13:14:31;;;;;;;;;;;20.60;97.60;;;;;;7324133;19;8956;-77
2023/09/15 13:17:04;;;;;;;;;;;20.60;97.40;;;;;;7324354;19;9246;-79
2023/09/15 13:19:33;;;;;;;;;;;20.60;95.10;;;;;;7323720;19;9617;-77
2023/09/15 13:22:03;;;;;;;;;;;20.80;94.70;;;;;;7323077;19;9192;-77
2023/09/15 13:24:32;;;;;;;;;;;21.00;94.20;;;;;;7323222;19;9321;-78
2023/09/15 13:27:02;;;;;;;;;;;21.20;94.50;;;;;;7323245;19;9186;-77
2023/09/15 13:29:34;;;;;;;;;;;21.40;93.50;;;;;;7317100;19;9123;-77
2023/09/15 13:32:03;;;;;;;;;;;21.30;93.50;;;;;;7323677;19;9496;-79
2023/09/15 13:34:35;;;;;;;;;;;21.20;91.20;;;;;;7318723;19;9330;-78
2023/09/15 13:37:04;;;;;;;;;;;21.30;91.00;;;;;;7322986;19;9479;-79
2023/09/15 13:39:33;;;;;;;;;;;21.40;91.90;;;;;;7323182;19;9455;-78
2023/09/15 13:42:03;;;;;;;;;;;21.40;91.90;;;;;;7323464;19;9301;-79
2023/09/15 13:44:35;;;;;;;;;;;21.50;92.30;;;;;;7322415;19;9222;-79
2023/09/15 13:47:04;;;;;;;;;;;21.30;91.90;;;;;;7322949;19;9406;-78
2023/09/15 13:49:34;;;;;;;;;;;21.30;92.20;;;;;;7323313;19;9543;-78
2023/09/15 13:52:03;;;;;;;;;;;21.20;92.00;;;;;;7322828;19;9248;-78
2023/09/15 13:54:33;;;;;;;;;;;21.20;92.00;;;;;;7321880;19;10609;-78
2023/09/15 13:57:02;;;;;;;;;;;21.40;92.30;;;;;;7321133;19;9293;-79
2023/09/15 13:59:31;;;;;;;;;;;21.50;94.20;;;;;;7321552;19;9218;-79
2023/09/15 14:02:03;;;;;;;;;;;21.30;90.80;;;;;;7322797;19;9242;-78
2023/09/15 14:04:32;;;;;;;;;;;21.40;90.50;;;;;;7322608;19;9651;-77
2023/09/15 14:07:04;;;;;;;;;;;21.40;91.40;;;;;;7322413;19;11053;-80
2023/09/15 14:09:35;;;;;;;;;;;21.40;89.50;;;;;;7321930;19;9306;-78
2023/09/15 14:12:04;;;;;;;;;;;21.40;90.10;;;;;;7322458;19;9277;-78
2023/09/15 14:14:35;;;;;;;;;;;21.50;88.90;;;;;;7322595;19;9230;-78
2023/09/15 14:17:07;;;;;;;;;;;21.30;89.30;;;;;;7320597;19;9483;-79
2023/09/15 14:19:36;;;;;;;;;;;21.20;87.40;;;;;;7322522;19;9418;-78
2023/09/15 14:22:06;;;;;;;;;;;21.10;89.20;;;;;;7321668;19;9143;-78
2023/09/15 14:24:35;;;;;;;;;;;21.20;90.40;;;;;;7321581;19;9257;-78
2023/09/15 14:27:05;;;;;;;;;;;21.30;91.50;;;;;;7318309;19;9126;-78
2023/09/15 14:29:34;;;;;;;;;;;21.40;91.40;;;;;;7321749;19;9246;-80
2023/09/15 14:32:05;;;;;;;;;;;21.40;91.20;;;;;;7321570;19;9221;-78
2023/09/15 14:34:39;;;;;;;;;;;21.30;91.40;;;;;;7318698;19;9240;-79
2023/09/15 14:37:08;;;;;;;;;;;21.40;90.90;;;;;;7320677;19;9230;-78
2023/09/15 14:39:37;;;;;;;;;;;21.40;90.40;;;;;;7321514;19;9480;-78
2023/09/15 14:42:08;;;;;;;;;;;21.40;90.10;;;;;;7322348;19;9096;-78
2023/09/15 14:44:37;;;;;;;;;;;21.40;91.10;;;;;;7323907;19;9139;-78
2023/09/15 14:47:07;;;;;;;;;;;21.30;90.40;;;;;;7321753;19;9158;-79
2023/09/15 14:49:38;;;;;;;;;;;21.30;90.30;;;;;;7321448;19;9159;-78
2023/09/15 14:52:27;;;;;;;;;;;21.40;91.10;;;;;;7319930;19;9646;-80
2023/09/15 14:54:56;;;;;;;;;;;21.30;89.10;;;;;;7317882;19;9423;-78
2023/09/15 14:57:45;;;;;;;;;;;21.40;89.90;;;;;;7319597;19;9235;-78
2023/09/15 15:00:15;;;;;;;;;;;21.30;90.30;;;;;;7320676;19;9551;-80